• Join FlightAware (Why Join?)
  • Login
  • US Flag 
08:59PM EDT


 

Airport Tracker/Info


-or-


 

Live Flight TrackerFlight Track Log ✈ FDX1703 ✈ 03-Jul-2013 ✈ KIND - KATL

Flight Track Log - Related Links

Times and Time Zones

All times are in EDT time to prevent confusion due to time zone crossing. See the FDX1703 flight status page for this flight to view local times or setup timezone preferences in your user account.

Time Position Orientation Groundspeed Altitude Reporting Facility
EDT Latitude Longitude Course Direction KTS MPH feet Rate Location/Type
03:45AM 39.6820 -86.3280 224° Southwest 183 211 2,000  Level FlightAware
03:46AM 39.6630 -86.3520 224° Southwest 219 252 2,700 1,680 Climbing FlightAware
03:46AM 39.6400 -86.3790 222° Southwest 246 283 3,600 2,640 Climbing FlightAware
03:47AM 39.6230 -86.3850 195° South 241 277 4,600 3,300 Climbing FlightAware
03:47AM 39.5920 -86.3830 177° South 251 289 6,000 3,120 Climbing FlightAware
03:47AM 39.5670 -86.3810 176° South 252 290 7,100 3,120 Climbing FlightAware
03:48AM 39.5440 -86.3790 176° South 257 296 8,100 2,820 Climbing FlightAware
03:48AM 39.5070 -86.3750 175° South 262 302 9,500 2,040 Climbing FlightAware
03:49AM 39.4560 -86.3670 173° South 304 350 10,500 1,380 Climbing FlightAware
03:50AM 39.3920 -86.3570 173° South 349 402 11,400 1,620 Climbing FlightAware
03:50AM 39.3230 -86.3460 173° South 366 421 12,800 2,100 Climbing FlightAware
03:51AM 39.2500 -86.3330 172° South 376 433 14,400 2,280 Climbing FlightAware
03:52AM 39.1740 -86.3200 172° South 385 443 16,100 2,160 Climbing FlightAware
03:52AM 39.1090 -86.3080 172° South 393 452 17,300 1,980 Climbing FlightAware
03:53AM 39.0230 -86.2930 172° South 399 459 18,900 1,800 Climbing FlightAware
03:54AM 38.9560 -86.2700 165° South 410 472 19,900 1,740 Climbing FlightAware
03:55AM 38.8430 -86.2290 164° South 418 481 21,800 1,680 Climbing FlightAware
03:55AM 38.7770 -86.2040 164° South 424 488 22,700 1,740 Climbing FlightAware
03:56AM 38.6980 -86.1750 164° South 422 486 24,100 1,680 Climbing FlightAware
03:57AM 38.6170 -86.1440 163° South 428 493 25,100 1,500 Climbing FlightAware
03:57AM 38.5540 -86.1210 164° South 430 495 26,000 1,320 Climbing FlightAware
03:58AM 38.4750 -86.0920 164° South 436 502 26,800 1,500 Climbing FlightAware
03:59AM 38.3950 -86.0630 164° South 431 496 28,100 1,620 Climbing FlightAware
03:59AM 38.3210 -86.0360 164° South 430 495 29,000 1,560 Climbing FlightAware
04:00AM 38.2240 -86.0010 164° South 425 489 30,400 1,800 Climbing FlightAware
04:01AM 38.1480 -85.9730 164° South 414 476 31,800 1,620 Climbing FlightAware
04:02AM 38.0760 -85.9470 164° South 413 475 32,600 1,200 Climbing FlightAware
04:02AM 38.0090 -85.9230 164° South 412 474 33,300 1,080 Climbing FlightAware
04:03AM 37.9360 -85.8960 164° South 411 473 34,000 960 Climbing FlightAware
04:04AM 37.8550 -85.8680 165° South 413 475 34,700 1,140 Climbing FlightAware
04:04AM 37.7940 -85.8450 163° South 405 466 35,500 960 Climbing FlightAware
04:05AM 37.7140 -85.8170 165° South 397 457 36,000 480 Climbing FlightAware
04:05AM 37.6854 -85.8067 164° South 398 458 36,000  Level FlightAware ADS-B
04:06AM 37.6005 -85.7765 164° South 398 458 36,000  Level FlightAware ADS-B
04:06AM 37.5452 -85.7568 164° South 401 461 36,000  Level FlightAware ADS-B
04:07AM 37.4890 -85.7365 164° South 400 460 36,000  Level FlightAware ADS-B
04:08AM 37.3649 -85.6923 164° South 400 460 36,000  Level FlightAware ADS-B
04:09AM 37.3034 -85.6708 164° South 402 463 36,000  Level FlightAware ADS-B
04:09AM 37.2471 -85.6511 164° South 405 466 36,000  Level FlightAware ADS-B
04:10AM 37.1924 -85.6316 164° South 406 467 36,000  Level FlightAware ADS-B
04:10AM 37.1370 -85.6125 165° South 407 468 36,000  Level FlightAware ADS-B
04:11AM 37.0823 -85.5934 164° South 407 468 36,000  Level FlightAware ADS-B
04:11AM 37.0250 -85.5728 164° South 406 467 36,000  Level FlightAware ADS-B
04:12AM 36.9433 -85.5440 164° South 406 467 36,000  Level FlightAware ADS-B
04:12AM 36.8876 -85.5243 164° South 407 468 36,000  Level FlightAware ADS-B
04:13AM 36.8300 -85.5044 165° South 408 470 36,000  Level FlightAware ADS-B
04:14AM 36.7679 -85.4829 164° South 409 471 36,000  Level FlightAware ADS-B
04:14AM 36.7129 -85.4637 164° South 410 472 36,000  Level FlightAware ADS-B
04:15AM 36.6569 -85.4440 164° South 410 472 36,000  Level FlightAware ADS-B
04:15AM 36.6012 -85.4250 165° South 410 472 36,000 60 Level FlightAware ADS-B
04:16AM 36.5458 -85.4054 164° South 411 473 36,100 60 Climbing FlightAware ADS-B
04:16AM 36.4814 -85.3833 165° South 412 474 36,100 -120 Level FlightAware ADS-B
04:17AM 36.4030 -85.3566 165° South 411 473 36,000 -120 Descending FlightAware ADS-B
04:17AM 36.3435 -85.3356 164° South 411 473 36,000  Level FlightAware ADS-B
04:18AM 36.2864 -85.3160 165° South 411 473 36,000  Level FlightAware ADS-B
04:18AM 36.2307 -85.2971 165° South 411 473 36,000  Level FlightAware ADS-B
04:19AM 36.1738 -85.2776 165° South 410 472 36,000  Level FlightAware ADS-B
04:19AM 36.1185 -85.2581 164° South 410 472 36,000  Level FlightAware ADS-B
04:20AM 36.0438 -85.2329 165° South 410 472 36,000  Level FlightAware ADS-B
04:21AM 35.9874 -85.2136 165° South 411 473 36,000  Level FlightAware ADS-B
04:21AM 35.9323 -85.1948 165° South 411 473 36,000  Level FlightAware ADS-B
04:22AM 35.8758 -85.1755 165° South 410 472 36,000  Level FlightAware ADS-B
04:22AM 35.8201 -85.1569 165° South 411 473 36,000  Level FlightAware ADS-B
04:23AM 35.7639 -85.1376 164° South 410 472 36,000  Level FlightAware ADS-B
04:23AM 35.7086 -85.1190 165° South 412 474 36,000  Level FlightAware ADS-B
04:24AM 35.6530 -85.1006 165° South 414 476 36,000  Level FlightAware ADS-B
04:24AM 35.5881 -85.0786 165° South 415 478 36,000  Level FlightAware ADS-B
04:25AM 35.5286 -85.0584 165° South 416 479 36,000  Level FlightAware ADS-B
04:25AM 35.4727 -85.0396 165° South 416 479 36,000  Level FlightAware ADS-B
04:26AM 35.4169 -85.0208 165° South 415 478 36,000  Level FlightAware ADS-B
04:26AM 35.3603 -85.0014 164° South 416 479 36,000  Level FlightAware ADS-B
04:27AM 35.3042 -84.9825 165° South 416 479 36,000  Level FlightAware ADS-B
04:27AM 35.2481 -84.9638 165° South 418 481 36,000  Level FlightAware ADS-B
04:28AM 35.1913 -84.9444 164° South 419 482 36,000  Level FlightAware ADS-B
04:28AM 35.1343 -84.9258 165° South 419 482 36,000  Level FlightAware ADS-B
04:29AM 35.0771 -84.9064 164° South 419 482 36,000 -300 Level FlightAware ADS-B
04:29AM 35.0098 -84.8840 165° South 414 476 35,700 -1,320 Descending FlightAware ADS-B
04:30AM 34.9542 -84.8657 165° South 412 474 34,600 -2,880 Descending FlightAware ADS-B
04:31AM 34.8689 -84.8373 165° South 419 482 32,100 -3,420 Descending FlightAware ADS-B
04:31AM 34.8116 -84.8187 165° South 430 495 30,300 -3,780 Descending FlightAware ADS-B
04:32AM 34.7521 -84.7990 165° South 437 503 28,300 -3,660 Descending FlightAware ADS-B
04:32AM 34.6929 -84.7794 165° South 443 510 26,600 -3,240 Descending FlightAware ADS-B
04:33AM 34.6335 -84.7597 165° South 442 509 25,100 -3,120 Descending FlightAware ADS-B
04:33AM 34.5733 -84.7403 165° South 435 501 23,500 -3,060 Descending FlightAware ADS-B
04:34AM 34.5147 -84.7222 166° South 418 481 22,000 -3,120 Descending FlightAware ADS-B
04:34AM 34.4526 -84.7026 165° South 412 474 20,200 -3,300 Descending FlightAware ADS-B
04:35AM 34.3835 -84.6786 164° South 402 463 18,100 -3,240 Descending FlightAware ADS-B
04:35AM 34.3301 -84.6606 164° South 394 453 16,500 -3,000 Descending FlightAware ADS-B
04:36AM 34.2738 -84.6423 165° South 381 438 15,000 -1,500 Descending FlightAware ADS-B
04:37AM 34.2181 -84.6297 169° South 379 436 14,900 -120 Descending FlightAware ADS-B
04:37AM 34.1383 -84.6383 185° South 379 436 14,900 -540 Level FlightAware ADS-B
04:38AM 34.1099 -84.6421 186° South 371 427 14,400 -3,120 Descending FlightAware ADS-B
04:39AM 34.0090 -84.6550 186° South 331 381 10,900 -2,520 Descending FlightAware
04:39AM 33.9440 -84.6640 187° South 280 322 10,000 -1,380 Descending FlightAware
04:40AM 33.9130 -84.6690 188° South 265 305 9,300 -2,160 Descending FlightAware
04:40AM 33.8790 -84.6740 187° South 264 304 8,100 -2,460 Descending FlightAware
04:41AM 33.8450 -84.6800 188° South 264 304 7,000 -2,400 Descending FlightAware
04:41AM 33.8290 -84.6820 186° South 262 302 6,500 -2,280 Descending FlightAware
04:41AM 33.7990 -84.6870 188° South 256 295 5,600 -2,100 Descending FlightAware
04:42AM 33.7680 -84.6910 186° South 255 293 4,700 -1,620 Descending FlightAware
04:42AM 33.7340 -84.6960 187° South 233 268 4,100 -900 Descending FlightAware
04:43AM 33.7100 -84.6990 186° South 213 245 3,900 -300 Descending FlightAware
04:43AM 33.6940 -84.7010 186° South 207 238 3,900  Level FlightAware
04:43AM 33.6780 -84.7020 183° South 186 214 3,900  Level FlightAware
04:44AM 33.6600 -84.6840 140° Southeast 188 216 3,900  Level FlightAware
04:44AM 33.6510 -84.6570 112° Southeast 191 220 3,900  Level FlightAware
04:45AM 33.6490 -84.6300 95° East 182 209 3,900 -480 Level FlightAware
04:45AM 33.6490 -84.6040 90° East 185 213 3,500 -900 Descending FlightAware
04:46AM 33.6490 -84.5750 90° East 179 206 3,100 -840 Descending FlightAware
04:46AM 33.6490 -84.5570 90° East 177 204 2,800 -900 Descending FlightAware
04:46AM 33.6490 -84.5250 90° East 152 175 2,300 -900 Descending FlightAware
04:47AM 33.6490 -84.5000 90° East 145 167 1,900 -780 Descending FlightAware
04:47AM 33.6490 -84.4790 90° East 142 163 1,600 -720 Descending FlightAware
04:48AM 33.6500 -84.4470 88° East 144 166 1,100 -720 Descending FlightAware
04:49AM 33.6500 -84.4200 90° East 48 55 -1,680 Descending FlightAware
04:50AM 33.6510 -84.4160 73° East 15 17  Level FlightAware
04:50AM 33.6510 -84.4150 90° East 15 17  Level FlightAware
04:50AM 33.6520 -84.4150 360° North 15 17  Level FlightAware
04:50AM 33.6530 -84.4150 360° North 15 17  Level FlightAware
04:51AM 33.6540 -84.4170 301° West 24 28  Level FlightAware
04:52AM 33.6560 -84.4190 320° Northwest 25 29  Level FlightAware
04:56AM 33.6333 -84.4167 106° East  Level FlightAware Approximate
04:57AM 33.6367 -84.4279 106° East  Level Estimated